Terminal Aerodrome Forecast
Issued by NWS Wichita, KS

Home | Current Version | Previous Version | Text Only | Print | Product List | Glossary Off
Versions: 1 2 3 4 5 6 7 8 9 10 11 12 13 14 15 16 17 18 19 20 21 22

925
FTUS43 KICT 192332
TAFICT
TAF
KICT 192332Z 2000/2024 11007KT P6SM OVC012
     FM200200 10004KT P6SM OVC008
     FM200600 08004KT 3SM -DZ BR OVC005
     FM200900 08004KT 1/2SM -DZ FG OVC003
     FM201500 12005KT 1 1/2SM BR OVC003
     FM201800 17009KT P6SM BKN016
     FM202300 19011KT P6SM BKN025=

USA.gov is the U.S. government's official web portal to all federal, state and local government web resources and services.